Time;durP1;ratioP1;P1;durP2;ratioP2;P2;SDS_P1;SDS_P2;PMS_P1;PMS_P2;Temp;Humidity;BMP_temperature;BMP_pressure;BME280_temperature;BME280_humidity;BME280_pressure;Samples;Min_cycle;Max_cycle;Signal;HPM_P1;HPM_P2
2023/08/05 00:00:54;;;;;;;2.90;2.70;;;20.60;92.40;;;;;;5075197;28;20153;-87
2023/08/05 00:03:20;;;;;;;3.00;2.70;;;20.50;92.30;;;;;;5058139;28;20173;-86
2023/08/05 00:05:46;;;;;;;2.83;2.63;;;20.50;92.30;;;;;;5076018;28;20153;-87
2023/08/05 00:08:12;;;;;;;2.92;2.63;;;20.50;92.30;;;;;;5058145;28;20173;-85
2023/08/05 00:10:43;;;;;;;2.70;2.50;;;20.50;92.30;;;;;;5074726;28;20244;-86
2023/08/05 00:13:09;;;;;;;2.80;2.60;;;20.60;92.30;;;;;;5057943;28;20169;-87
2023/08/05 00:15:34;;;;;;;2.70;2.50;;;20.50;92.40;;;;;;5057874;28;20246;-87
2023/08/05 00:18:00;;;;;;;3.10;2.80;;;20.50;92.30;;;;;;5076011;28;20689;-87
2023/08/05 00:20:30;;;;;;;2.70;2.50;;;20.50;92.30;;;;;;5074506;28;20150;-85
2023/08/05 00:22:57;;;;;;;2.63;2.42;;;20.50;92.40;;;;;;5057292;28;20306;-87
2023/08/05 00:25:23;;;;;;;2.75;2.55;;;20.50;92.30;;;;;;5074709;28;20491;-87
2023/08/05 00:27:48;;;;;;;2.67;2.47;;;20.50;92.30;;;;;;5074454;28;20591;-88
2023/08/05 00:30:14;;;;;;;2.97;2.78;;;20.50;92.30;;;;;;5075534;28;20243;-86
2023/08/05 00:32:40;;;;;;;2.80;2.60;;;20.50;92.30;;;;;;5057902;28;20181;-87
2023/08/05 00:35:07;;;;;;;2.70;2.50;;;20.50;92.40;;;;;;5075674;28;20157;-85
2023/08/05 00:37:37;;;;;;;2.53;2.33;;;20.50;92.40;;;;;;5075374;28;20521;-85
2023/08/05 00:40:05;;;;;;;2.63;2.42;;;20.50;92.40;;;;;;5056912;28;20653;-87
2023/08/05 00:42:31;;;;;;;2.72;2.53;;;20.50;92.40;;;;;;5075765;28;20601;-85
2023/08/05 00:44:57;;;;;;;2.80;2.60;;;20.50;92.40;;;;;;5074220;28;20149;-86
2023/08/05 00:47:23;;;;;;;2.67;2.47;;;20.40;92.30;;;;;;5074307;28;20175;-88
2023/08/05 00:49:50;;;;;;;2.63;2.42;;;20.50;92.40;;;;;;5074374;28;20146;-87
2023/08/05 00:52:17;;;;;;;2.60;2.40;;;20.50;92.40;;;;;;5074331;28;20152;-87
2023/08/05 00:54:43;;;;;;;2.50;2.30;;;20.50;92.40;;;;;;5073983;28;20174;-86
2023/08/05 00:57:11;;;;;;;2.80;2.60;;;20.50;92.30;;;;;;5074255;28;20566;-87
2023/08/05 00:59:37;;;;;;;2.80;2.60;;;20.50;92.40;;;;;;5056907;28;20217;-86
2023/08/05 01:02:03;;;;;;;2.80;2.60;;;20.50;92.40;;;;;;5073133;28;20196;-85
2023/08/05 01:04:29;;;;;;;2.80;2.60;;;20.50;92.40;;;;;;5057683;28;20162;-87
2023/08/05 01:06:55;;;;;;;2.80;2.60;;;20.50;92.40;;;;;;5073673;28;20153;-88
2023/08/05 01:09:21;;;;;;;2.97;2.67;;;20.50;92.50;;;;;;5057070;28;20219;-88
2023/08/05 01:11:47;;;;;;;2.60;2.40;;;20.40;92.40;;;;;;5056621;28;20623;-88
2023/08/05 01:14:13;;;;;;;2.70;2.50;;;20.50;92.30;;;;;;5073454;28;20161;-85
2023/08/05 01:16:39;;;;;;;2.35;2.15;;;20.50;92.30;;;;;;5073614;28;20191;-86
2023/08/05 01:19:07;;;;;;;2.70;2.50;;;20.50;92.40;;;;;;5073259;28;20197;-88
2023/08/05 01:21:41;;;;;;;2.70;2.50;;;20.40;92.40;;;;;;5074521;28;20153;-86
2023/08/05 01:24:23;;;;;;;2.60;2.40;;;20.40;92.40;;;;;;5073309;28;20165;-87
2023/08/05 01:26:49;;;;;;;2.70;2.50;;;20.50;92.40;;;;;;5073523;28;20164;-86
2023/08/05 01:29:15;;;;;;;2.67;2.47;;;20.50;92.40;;;;;;5073238;28;20244;-87
2023/08/05 01:31:41;;;;;;;3.10;2.38;;;20.50;92.40;;;;;;5073235;28;20149;-86
2023/08/05 01:34:07;;;;;;;2.80;2.60;;;20.50;92.40;;;;;;5073129;28;20184;-85
2023/08/05 01:36:33;;;;;;;2.72;2.53;;;20.50;92.40;;;;;;5056324;28;20188;-87
2023/08/05 01:38:59;;;;;;;2.97;2.67;;;20.40;92.20;;;;;;5056762;28;20272;-86
2023/08/05 01:41:25;;;;;;;4.47;2.90;;;20.50;92.30;;;;;;5072976;28;20158;-86
2023/08/05 01:43:51;;;;;;;2.67;2.47;;;20.50;92.30;;;;;;5056810;28;20173;-88
2023/08/05 01:46:17;;;;;;;2.95;2.70;;;20.50;92.30;;;;;;5056497;28;20157;-86
2023/08/05 01:48:43;;;;;;;2.58;2.38;;;20.50;92.30;;;;;;5072817;28;20181;-88
2023/08/05 01:51:08;;;;;;;2.70;2.50;;;20.50;92.40;;;;;;5072914;28;20156;-88
2023/08/05 01:53:34;;;;;;;2.88;2.58;;;20.40;92.30;;;;;;5072996;28;20160;-86
2023/08/05 01:56:00;;;;;;;2.63;2.42;;;20.50;92.30;;;;;;5056268;28;20155;-87
2023/08/05 01:58:26;;;;;;;2.83;2.63;;;20.50;92.40;;;;;;5072636;28;20211;-87
2023/08/05 02:00:52;;;;;;;2.80;2.60;;;20.50;92.30;;;;;;5055942;28;20201;-87
2023/08/05 02:03:19;;;;;;;3.08;2.80;;;20.40;92.40;;;;;;5072640;28;20153;-86
2023/08/05 02:05:45;;;;;;;2.85;2.58;;;20.40;92.40;;;;;;5055796;28;20159;-87
2023/08/05 02:08:11;;;;;;;2.78;2.58;;;20.50;92.30;;;;;;5056551;28;20187;-86
2023/08/05 02:10:37;;;;;;;2.83;2.58;;;20.50;92.30;;;;;;5055897;28;20671;-85
2023/08/05 02:13:04;;;;;;;2.45;2.25;;;20.50;92.30;;;;;;5089015;28;20170;-85
2023/08/05 02:15:30;;;;;;;2.88;2.60;;;20.50;92.40;;;;;;5073654;28;20158;-86
2023/08/05 02:17:56;;;;;;;2.70;2.50;;;20.50;92.40;;;;;;5073435;28;20245;-88
2023/08/05 02:20:22;;;;;;;2.50;2.30;;;20.40;92.30;;;;;;5055614;28;20643;-85
2023/08/05 02:22:48;;;;;;;2.67;2.47;;;20.50;92.40;;;;;;5056164;28;20635;-87
2023/08/05 02:25:13;;;;;;;2.65;2.45;;;20.50;92.30;;;;;;5072250;28;20631;-86
2023/08/05 02:27:39;;;;;;;2.42;2.22;;;20.50;92.40;;;;;;5073434;28;20153;-87
2023/08/05 02:30:06;;;;;;;2.80;2.60;;;20.40;92.30;;;;;;5072239;28;20154;-84
2023/08/05 02:32:32;;;;;;;2.67;2.47;;;20.40;92.30;;;;;;5073314;28;20232;-88
2023/08/05 02:34:58;;;;;;;3.47;2.60;;;20.50;92.30;;;;;;5072229;28;20200;-86
2023/08/05 02:37:24;;;;;;;2.97;2.70;;;20.50;92.40;;;;;;5072389;28;20246;-86
2023/08/05 02:39:50;;;;;;;2.55;2.35;;;20.40;92.30;;;;;;5072031;28;20612;-86
2023/08/05 02:42:16;;;;;;;2.60;2.40;;;20.40;92.30;;;;;;5055352;28;20193;-84
2023/08/05 02:44:42;;;;;;;2.63;2.42;;;20.40;92.30;;;;;;5073210;28;20190;-87
2023/08/05 02:47:08;;;;;;;2.85;2.65;;;20.40;92.40;;;;;;5072258;28;20199;-85
2023/08/05 02:49:34;;;;;;;2.78;2.58;;;20.40;92.40;;;;;;5073225;28;20203;-85
2023/08/05 02:52:00;;;;;;;2.78;2.53;;;20.40;92.40;;;;;;5072227;28;20203;-86
2023/08/05 02:54:26;;;;;;;2.40;2.20;;;20.40;92.50;;;;;;5071891;28;20535;-87
2023/08/05 02:56:52;;;;;;;2.95;2.65;;;20.40;92.40;;;;;;5055775;28;20162;-88
2023/08/05 02:59:18;;;;;;;2.90;2.70;;;20.40;92.40;;;;;;5073598;28;20660;-86
2023/08/05 03:01:44;;;;;;;2.65;2.45;;;20.40;92.30;;;;;;5071918;28;20157;-87
2023/08/05 03:04:10;;;;;;;2.83;2.63;;;20.40;92.30;;;;;;5054950;28;20676;-85
2023/08/05 03:06:36;;;;;;;2.60;2.40;;;20.40;92.30;;;;;;5054979;28;20188;-87
2023/08/05 03:09:02;;;;;;;2.60;2.40;;;20.40;92.30;;;;;;5072247;28;20176;-85
2023/08/05 03:11:31;;;;;;;2.70;2.50;;;20.40;92.30;;;;;;5071483;28;20240;-85
2023/08/05 03:13:57;;;;;;;3.28;2.33;;;20.40;92.40;;;;;;5072920;28;20157;-86
2023/08/05 03:16:23;;;;;;;2.83;2.53;;;20.40;92.40;;;;;;5071724;28;20177;-87
2023/08/05 03:18:49;;;;;;;2.60;2.40;;;20.40;92.40;;;;;;5073087;28;20619;-86
2023/08/05 03:21:15;;;;;;;2.75;2.55;;;20.40;92.40;;;;;;5072941;28;20157;-86
2023/08/05 03:23:41;;;;;;;2.88;2.65;;;20.40;92.50;;;;;;5072829;28;20157;-87
2023/08/05 03:26:07;;;;;;;2.88;2.67;;;20.30;92.40;;;;;;5058105;28;20162;-87
2023/08/05 03:28:33;;;;;;;2.72;2.53;;;20.40;92.50;;;;;;5076760;28;20247;-88
2023/08/05 03:30:59;;;;;;;3.03;2.80;;;20.40;92.50;;;;;;5058744;28;20168;-87
2023/08/05 03:33:25;;;;;;;2.80;2.60;;;20.30;92.40;;;;;;5075940;28;20248;-87
2023/08/05 03:35:51;;;;;;;2.65;2.45;;;20.40;92.50;;;;;;5075469;28;20240;-88
2023/08/05 03:38:17;;;;;;;2.80;2.60;;;20.30;92.30;;;;;;5058579;28;20196;-86
2023/08/05 03:40:43;;;;;;;2.65;2.45;;;20.30;92.30;;;;;;5076803;28;20150;-87
2023/08/05 03:43:09;;;;;;;2.58;2.38;;;20.30;92.30;;;;;;5075268;28;20206;-86
2023/08/05 03:45:35;;;;;;;2.70;2.50;;;20.40;92.40;;;;;;5076656;28;20157;-87
2023/08/05 03:48:01;;;;;;;2.55;2.35;;;20.30;92.40;;;;;;5075657;28;20552;-88
2023/08/05 03:50:28;;;;;;;2.70;2.50;;;20.40;92.40;;;;;;5075377;28;20162;-86
2023/08/05 03:52:55;;;;;;;2.60;2.40;;;20.30;92.40;;;;;;5075530;28;20299;-87
2023/08/05 03:55:21;;;;;;;2.72;2.53;;;20.40;92.40;;;;;;5058740;28;20517;-88
2023/08/05 03:57:48;;;;;;;2.85;2.55;;;20.40;92.40;;;;;;5058334;28;20536;-89
2023/08/05 04:00:14;;;;;;;2.90;2.60;;;20.40;92.30;;;;;;5058737;28;20631;-89
2023/08/05 04:02:42;;;;;;;2.78;2.58;;;20.40;92.20;;;;;;5075273;28;20154;-87
2023/08/05 04:05:08;;;;;;;2.70;2.50;;;20.40;92.20;;;;;;5076004;28;20149;-87
2023/08/05 04:07:34;;;;;;;2.80;2.60;;;20.40;92.20;;;;;;5076123;28;20237;-86
2023/08/05 04:10:00;;;;;;;2.85;2.60;;;20.40;92.20;;;;;;5074413;28;20260;-86
2023/08/05 04:12:26;;;;;;;2.65;2.45;;;20.40;92.10;;;;;;5091660;28;20173;-88
2023/08/05 04:14:53;;;;;;;2.67;2.47;;;20.40;92.10;;;;;;5074654;28;20161;-87
2023/08/05 04:17:21;;;;;;;2.58;2.38;;;20.40;92.10;;;;;;5074557;28;20558;-86
2023/08/05 04:19:48;;;;;;;2.65;2.45;;;20.50;92.10;;;;;;5075010;28;20264;-88
2023/08/05 04:22:16;;;;;;;2.70;2.50;;;20.50;92.00;;;;;;5074965;28;20237;-90
2023/08/05 04:24:45;;;;;;;2.70;2.50;;;20.40;92.00;;;;;;5075984;28;20620;-86
2023/08/05 04:27:11;;;;;;;2.55;2.35;;;20.40;92.00;;;;;;5058132;28;20184;-88
2023/08/05 04:29:37;;;;;;;2.70;2.50;;;20.50;91.90;;;;;;5074354;28;20304;-87
2023/08/05 04:32:03;;;;;;;2.78;2.58;;;20.50;91.90;;;;;;5074277;28;20200;-88
2023/08/05 04:34:35;;;;;;;2.72;2.53;;;20.50;91.90;;;;;;5074656;28;20612;-88
2023/08/05 04:37:16;;;;;;;2.72;2.53;;;20.50;91.80;;;;;;5057757;28;20256;-87
2023/08/05 04:39:43;;;;;;;2.90;2.70;;;20.50;91.70;;;;;;5074147;28;20192;-86
2023/08/05 04:42:09;;;;;;;2.67;2.47;;;20.50;91.70;;;;;;5058128;28;20158;-86
2023/08/05 04:44:37;;;;;;;2.63;2.42;;;20.50;91.70;;;;;;5074153;28;20552;-89
2023/08/05 04:47:04;;;;;;;2.70;2.50;;;20.50;91.60;;;;;;5075551;28;20164;-86
2023/08/05 04:49:30;;;;;;;2.60;2.40;;;20.60;91.50;;;;;;5074138;28;20312;-89
2023/08/05 04:51:56;;;;;;;2.78;2.58;;;20.60;91.50;;;;;;5074014;28;20166;-88
2023/08/05 04:54:23;;;;;;;2.75;2.55;;;20.60;91.60;;;;;;5075519;28;20523;-88
2023/08/05 04:56:49;;;;;;;2.70;2.50;;;20.60;91.50;;;;;;5073831;28;20173;-88
2023/08/05 04:59:15;;;;;;;2.60;2.40;;;20.60;91.50;;;;;;5056954;28;20190;-88
2023/08/05 05:01:41;;;;;;;2.50;2.30;;;20.60;91.50;;;;;;5075047;28;20161;-87
2023/08/05 05:04:07;;;;;;;2.42;2.22;;;20.60;91.50;;;;;;5074186;28;20205;-89
2023/08/05 05:06:33;;;;;;;2.45;2.25;;;20.60;91.50;;;;;;5074847;28;20631;-88
2023/08/05 05:08:59;;;;;;;2.70;2.50;;;20.60;91.40;;;;;;5074877;28;20157;-87
2023/08/05 05:11:24;;;;;;;2.50;2.30;;;20.60;91.50;;;;;;5073329;28;20687;-88
2023/08/05 05:13:52;;;;;;;2.78;2.58;;;20.60;91.40;;;;;;5073587;28;20528;-87
2023/08/05 05:16:18;;;;;;;2.70;2.50;;;20.60;91.40;;;;;;5073627;28;20207;-88
2023/08/05 05:18:44;;;;;;;2.70;2.50;;;20.60;91.40;;;;;;5056685;28;20201;-87
2023/08/05 05:21:10;;;;;;;2.72;2.53;;;20.60;91.30;;;;;;5073812;28;20153;-88
2023/08/05 05:23:36;;;;;;;2.50;2.30;;;20.60;91.30;;;;;;5074604;28;20153;-88
2023/08/05 05:26:02;;;;;;;2.60;2.40;;;20.70;91.20;;;;;;5074044;28;20181;-89
2023/08/05 05:28:28;;;;;;;2.65;2.45;;;20.70;91.10;;;;;;5073406;28;20153;-89
2023/08/05 05:30:54;;;;;;;3.00;2.70;;;20.70;91.10;;;;;;5057419;28;20651;-87
2023/08/05 05:33:20;;;;;;;2.53;2.33;;;20.70;91.00;;;;;;5074781;28;20157;-89
2023/08/05 05:35:49;;;;;;;2.38;2.17;;;20.70;91.00;;;;;;5056325;28;20595;-87
2023/08/05 05:38:15;;;;;;;2.67;2.47;;;20.80;90.80;;;;;;5073174;28;20193;-88
2023/08/05 05:40:41;;;;;;;2.75;2.55;;;20.80;90.80;;;;;;5073079;28;20552;-86
2023/08/05 05:43:08;;;;;;;2.53;2.33;;;20.80;90.60;;;;;;5056324;28;20535;-87
2023/08/05 05:45:35;;;;;;;2.50;2.30;;;20.80;90.60;;;;;;5074067;28;20157;-88
2023/08/05 05:48:01;;;;;;;2.35;2.10;;;20.80;90.60;;;;;;5056173;28;20169;-88
2023/08/05 05:50:30;;;;;;;2.67;2.47;;;20.90;90.40;;;;;;5072761;28;20581;-87
2023/08/05 05:52:56;;;;;;;2.60;2.40;;;20.90;90.30;;;;;;5038746;28;20242;-88
2023/08/05 05:55:22;;;;;;;2.70;2.50;;;21.00;90.20;;;;;;5074278;28;20236;-88
2023/08/05 05:57:48;;;;;;;2.42;2.22;;;21.00;90.20;;;;;;5056360;28;20665;-86
2023/08/05 06:00:14;;;;;;;2.40;2.20;;;21.00;90.00;;;;;;5073895;28;20157;-87
2023/08/05 06:02:41;;;;;;;2.47;2.28;;;21.00;90.10;;;;;;5072434;28;20635;-87
2023/08/05 06:05:08;;;;;;;2.67;2.47;;;21.00;90.00;;;;;;5072554;28;20158;-86
2023/08/05 06:07:33;;;;;;;2.55;2.35;;;21.10;89.90;;;;;;5073789;28;20616;-88
2023/08/05 06:09:59;;;;;;;2.60;2.40;;;21.00;89.90;;;;;;5055926;28;20218;-88
2023/08/05 06:12:30;;;;;;;2.58;2.38;;;21.00;89.90;;;;;;5056369;28;20496;-86
2023/08/05 06:14:56;;;;;;;2.40;2.20;;;21.00;89.70;;;;;;5056955;28;20533;-88
2023/08/05 06:17:22;;;;;;;2.67;2.47;;;21.00;89.80;;;;;;5055904;28;20256;-86
2023/08/05 06:19:48;;;;;;;2.40;2.20;;;21.00;89.90;;;;;;5073667;28;20189;-87
2023/08/05 06:22:14;;;;;;;2.38;2.17;;;21.00;90.00;;;;;;5072535;28;20161;-86
2023/08/05 06:24:40;;;;;;;2.50;2.30;;;20.90;90.40;;;;;;5072638;28;20571;-86
2023/08/05 06:27:06;;;;;;;2.50;2.30;;;20.90;90.10;;;;;;5056316;28;20605;-87
2023/08/05 06:29:32;;;;;;;2.80;2.53;;;21.00;90.10;;;;;;5072293;28;20215;-87
2023/08/05 06:31:58;;;;;;;2.85;2.65;;;20.90;90.00;;;;;;5055662;28;20252;-88
2023/08/05 06:34:24;;;;;;;2.47;2.28;;;20.90;90.00;;;;;;5072392;28;20256;-87
2023/08/05 06:36:50;;;;;;;2.55;2.35;;;20.90;90.00;;;;;;5072219;28;20158;-86
2023/08/05 06:39:16;;;;;;;2.63;2.42;;;20.90;90.00;;;;;;5055245;28;20540;-88
2023/08/05 06:41:42;;;;;;;2.58;2.38;;;20.90;90.10;;;;;;5055232;28;20176;-89
2023/08/05 06:44:08;;;;;;;2.50;2.30;;;20.80;90.30;;;;;;5073314;28;20149;-87
2023/08/05 06:46:33;;;;;;;3.10;2.80;;;20.70;90.50;;;;;;5072075;28;20165;-86
2023/08/05 06:48:59;;;;;;;3.00;2.70;;;20.70;90.50;;;;;;5055181;28;20165;-88
2023/08/05 06:51:26;;;;;;;2.60;2.40;;;20.60;90.60;;;;;;5055305;28;20189;-88
2023/08/05 06:53:52;;;;;;;2.65;2.45;;;20.60;90.60;;;;;;5072241;28;20615;-89
2023/08/05 06:56:18;;;;;;;2.70;2.50;;;20.60;90.70;;;;;;5055649;28;20164;-88
2023/08/05 06:58:44;;;;;;;2.78;2.58;;;20.60;90.80;;;;;;5072212;28;20610;-90
2023/08/05 07:01:10;;;;;;;2.67;2.47;;;20.50;90.90;;;;;;5058098;28;20153;-86
2023/08/05 07:03:36;;;;;;;2.90;2.70;;;20.50;91.00;;;;;;5059167;28;20168;-87
2023/08/05 07:06:02;;;;;;;2.90;2.70;;;20.40;91.10;;;;;;5059154;28;20674;-87
2023/08/05 07:08:29;;;;;;;2.67;2.47;;;20.40;91.20;;;;;;5077177;28;20643;-86
2023/08/05 07:10:55;;;;;;;2.67;2.47;;;20.40;91.30;;;;;;5075612;28;20231;-86
2023/08/05 07:13:21;;;;;;;2.65;2.45;;;20.40;91.30;;;;;;5076188;28;20260;-88
2023/08/05 07:15:47;;;;;;;2.80;2.60;;;20.40;91.30;;;;;;5075815;28;20244;-88
2023/08/05 07:18:13;;;;;;;2.72;2.53;;;20.40;91.30;;;;;;5058862;28;20554;-88
2023/08/05 07:20:40;;;;;;;2.60;2.40;;;20.40;91.30;;;;;;5058956;28;20161;-86
2023/08/05 07:23:06;;;;;;;2.80;2.60;;;20.40;91.30;;;;;;5076232;28;20150;-89
2023/08/05 07:25:36;;;;;;;2.85;2.65;;;20.40;91.30;;;;;;5075971;28;20227;-86
2023/08/05 07:28:02;;;;;;;2.75;2.55;;;20.30;91.40;;;;;;5074945;28;20238;-86
2023/08/05 07:30:28;;;;;;;3.08;2.88;;;20.30;91.50;;;;;;5076955;28;20232;-88
2023/08/05 07:32:54;;;;;;;2.83;2.63;;;20.30;91.40;;;;;;5058833;28;20173;-87
2023/08/05 07:35:20;;;;;;;2.90;2.60;;;20.30;91.40;;;;;;5075608;28;20189;-87
2023/08/05 07:37:47;;;;;;;2.80;2.60;;;20.40;91.50;;;;;;5058815;28;20161;-88
2023/08/05 07:40:13;;;;;;;2.60;2.40;;;20.30;91.40;;;;;;5075138;28;20213;-88
2023/08/05 07:42:40;;;;;;;2.78;2.58;;;20.30;91.40;;;;;;5076428;28;20574;-87
2023/08/05 07:45:11;;;;;;;2.72;2.53;;;20.30;91.50;;;;;;5075251;28;20564;-88
2023/08/05 07:47:41;;;;;;;2.40;2.20;;;20.30;91.40;;;;;;5075146;28;20158;-89
2023/08/05 07:50:10;;;;;;;2.70;2.50;;;20.40;91.40;;;;;;5075357;28;20153;-87
2023/08/05 07:52:36;;;;;;;2.67;2.47;;;20.40;91.30;;;;;;5075330;28;20150;-87
2023/08/05 07:55:03;;;;;;;2.63;2.42;;;20.40;91.30;;;;;;5059046;28;20170;-88
2023/08/05 07:57:30;;;;;;;2.55;2.35;;;20.50;91.20;;;;;;5075241;28;20154;-88
2023/08/05 08:00:00;;;;;;;2.63;2.42;;;20.50;91.10;;;;;;5075178;28;20632;-86
2023/08/05 08:02:26;;;;;;;2.67;2.47;;;20.40;91.10;;;;;;5074219;28;20177;-87
2023/08/05 08:04:55;;;;;;;3.33;3.03;;;20.50;91.00;;;;;;5076051;28;20184;-87
2023/08/05 08:07:21;;;;;;;3.20;2.90;;;20.50;91.00;;;;;;5058273;28;20264;-89
2023/08/05 08:09:47;;;;;;;2.75;2.55;;;20.50;91.00;;;;;;5074698;28;20193;-89
2023/08/05 08:12:13;;;;;;;3.05;2.75;;;20.50;91.00;;;;;;5075512;28;20242;-87
2023/08/05 08:14:39;;;;;;;2.58;2.38;;;20.50;90.90;;;;;;5074959;28;20154;-88
2023/08/05 08:17:05;;;;;;;2.72;2.53;;;20.50;90.90;;;;;;5058275;28;20660;-88
2023/08/05 08:19:31;;;;;;;2.80;2.60;;;20.40;90.90;;;;;;5057809;28;20528;-87
2023/08/05 08:21:57;;;;;;;2.70;2.50;;;20.60;90.80;;;;;;5075743;28;20154;-88
2023/08/05 08:24:23;;;;;;;2.80;2.60;;;20.70;90.70;;;;;;5058492;28;20172;-88
2023/08/05 08:26:49;;;;;;;3.08;2.80;;;20.60;90.70;;;;;;5074610;28;20150;-87
2023/08/05 08:29:15;;;;;;;2.72;2.53;;;20.60;90.60;;;;;;5074511;28;20566;-87
2023/08/05 08:31:41;;;;;;;2.70;2.50;;;20.60;90.50;;;;;;5057636;28;20162;-87
2023/08/05 08:34:07;;;;;;;2.60;2.40;;;20.60;90.50;;;;;;5075466;28;20191;-88
2023/08/05 08:36:33;;;;;;;3.13;2.67;;;20.60;90.30;;;;;;5075812;28;20150;-88
2023/08/05 08:38:59;;;;;;;2.60;2.40;;;20.60;90.10;;;;;;5057464;28;20205;-87
2023/08/05 08:41:25;;;;;;;3.20;2.90;;;20.60;90.10;;;;;;5075251;28;20177;-87
2023/08/05 08:43:52;;;;;;;3.40;3.10;;;20.70;90.10;;;;;;5057918;28;20187;-87
2023/08/05 08:46:19;;;;;;;3.00;2.80;;;20.70;90.00;;;;;;5074688;28;20164;-87
2023/08/05 08:48:45;;;;;;;2.60;2.40;;;20.60;89.70;;;;;;5073998;28;20613;-87
2023/08/05 08:51:11;;;;;;;3.10;2.80;;;20.70;90.10;;;;;;5057498;28;20157;-86
2023/08/05 08:53:37;;;;;;;3.15;2.80;;;20.70;89.70;;;;;;5057634;28;20520;-89
2023/08/05 08:56:03;;;;;;;2.70;2.50;;;20.70;89.50;;;;;;5074115;28;20176;-87
2023/08/05 08:58:29;;;;;;;2.75;2.55;;;20.70;89.50;;;;;;5057066;28;20689;-87
2023/08/05 09:00:55;;;;;;;2.65;2.45;;;20.70;89.80;;;;;;5057041;28;20162;-88
2023/08/05 09:03:24;;;;;;;2.90;2.70;;;20.70;89.80;;;;;;5058314;28;20177;-87
2023/08/05 09:05:54;;;;;;;2.90;2.70;;;20.70;89.60;;;;;;5073762;28;20145;-87
2023/08/05 09:08:20;;;;;;;3.15;2.80;;;20.70;89.50;;;;;;5057473;28;20223;-87
2023/08/05 09:10:45;;;;;;;2.83;2.58;;;20.70;89.40;;;;;;5073711;28;20217;-88
2023/08/05 09:13:11;;;;;;;2.80;2.60;;;20.80;89.10;;;;;;5057010;28;20531;-86
2023/08/05 09:15:38;;;;;;;2.70;2.50;;;20.70;89.00;;;;;;5056786;28;20203;-86
2023/08/05 09:18:05;;;;;;;2.90;2.60;;;20.80;88.90;;;;;;5056968;28;20197;-87
2023/08/05 09:20:31;;;;;;;3.22;2.90;;;20.70;88.80;;;;;;5057183;28;20173;-86
2023/08/05 09:23:00;;;;;;;2.83;2.60;;;20.70;88.80;;;;;;5073903;28;20247;-86
2023/08/05 09:25:27;;;;;;;3.10;2.80;;;20.80;88.40;;;;;;5073439;28;20150;-86
2023/08/05 09:27:53;;;;;;;3.13;2.90;;;20.70;88.30;;;;;;5057072;28;20181;-86
2023/08/05 09:30:21;;;;;;;3.13;2.85;;;20.80;88.10;;;;;;5056574;28;20194;-86
2023/08/05 09:32:47;;;;;;;3.13;2.83;;;20.80;87.80;;;;;;5073082;28;20158;-88
2023/08/05 09:35:14;;;;;;;2.97;2.78;;;20.80;87.60;;;;;;5073485;28;20228;-88
2023/08/05 09:37:45;;;;;;;3.08;2.78;;;20.70;88.00;;;;;;5073214;28;20189;-88
2023/08/05 09:40:29;;;;;;;3.10;2.80;;;20.70;88.10;;;;;;5056182;28;20256;-87
2023/08/05 09:42:59;;;;;;;3.10;2.80;;;20.70;88.10;;;;;;5056405;28;20171;-87
2023/08/05 09:45:25;;;;;;;3.30;3.00;;;20.70;88.10;;;;;;5074073;28;20618;-89
2023/08/05 09:48:03;;;;;;;3.20;2.90;;;20.70;87.70;;;;;;5056325;28;20169;-86
2023/08/05 09:50:30;;;;;;;3.00;2.80;;;20.70;87.90;;;;;;5073200;28;20149;-87
2023/08/05 09:52:57;;;;;;;3.30;3.00;;;20.70;87.50;;;;;;5073338;28;20160;-86
2023/08/05 09:55:23;;;;;;;3.33;3.03;;;20.70;87.80;;;;;;5072721;28;20191;-87
2023/08/05 09:57:49;;;;;;;3.53;3.22;;;20.70;87.60;;;;;;5072661;28;20229;-86
2023/08/05 10:00:15;;;;;;;3.25;2.95;;;20.70;87.50;;;;;;5072625;28;20160;-87
2023/08/05 10:02:43;;;;;;;3.15;2.85;;;20.70;87.50;;;;;;5072583;28;20150;-85
2023/08/05 10:05:10;;;;;;;2.97;2.78;;;20.70;87.40;;;;;;5056202;28;20164;-86
2023/08/05 10:07:41;;;;;;;2.97;2.78;;;20.70;87.20;;;;;;5072969;28;20210;-86
2023/08/05 10:10:09;;;;;;;3.35;3.05;;;20.70;87.10;;;;;;5038087;28;20277;-86
2023/08/05 10:12:41;;;;;;;2.97;2.70;;;20.70;87.20;;;;;;5055556;28;20704;-86
2023/08/05 10:15:07;;;;;;;3.25;2.95;;;20.70;87.10;;;;;;5072493;28;20154;-86
2023/08/05 10:17:37;;;;;;;3.20;2.90;;;20.70;86.70;;;;;;5072129;28;20544;-87
2023/08/05 10:20:03;;;;;;;3.05;2.85;;;20.70;86.70;;;;;;5072358;28;20276;-86
2023/08/05 10:22:31;;;;;;;3.35;3.05;;;20.70;86.50;;;;;;5056147;28;20523;-86
2023/08/05 10:24:58;;;;;;;2.88;2.67;;;20.70;86.40;;;;;;5056009;28;20242;-87
2023/08/05 10:27:37;;;;;;;3.20;2.90;;;20.70;86.00;;;;;;5055641;28;20201;-86
2023/08/05 10:30:06;;;;;;;3.08;2.78;;;20.80;85.80;;;;;;5056172;28;20222;-86
2023/08/05 10:32:33;;;;;;;3.33;3.03;;;20.80;85.90;;;;;;5055342;28;20173;-85
2023/08/05 10:35:26;;;;;;;3.30;3.00;;;20.80;85.80;;;;;;5072045;28;20223;-87
2023/08/05 10:38:07;;;;;;;3.00;2.70;;;20.80;85.60;;;;;;5071977;28;20556;-85
2023/08/05 10:40:47;;;;;;;3.00;2.70;;;20.80;85.60;;;;;;5072583;28;20177;-87
2023/08/05 10:43:36;;;;;;;3.30;3.00;;;20.70;85.40;;;;;;5071914;28;20523;-85
2023/08/05 10:46:11;;;;;;;2.83;2.63;;;20.80;85.10;;;;;;5073033;28;20185;-86
2023/08/05 10:48:47;;;;;;;3.25;2.95;;;20.80;84.90;;;;;;5071798;28;20524;-85
2023/08/05 10:51:17;;;;;;;3.03;2.75;;;20.80;84.50;;;;;;5073132;28;20153;-86
2023/08/05 10:53:43;;;;;;;3.17;2.88;;;20.80;84.40;;;;;;5071731;28;20259;-87
2023/08/05 10:56:13;;;;;;;3.20;2.90;;;20.80;84.30;;;;;;5072186;28;20600;-84
2023/08/05 10:58:54;;;;;;;3.10;2.80;;;20.80;84.50;;;;;;5072187;28;20189;-85
2023/08/05 11:01:20;;;;;;;3.00;2.70;;;20.80;84.30;;;;;;5073275;28;20154;-86
2023/08/05 11:03:48;;;;;;;3.35;2.90;;;20.80;84.20;;;;;;5055386;28;20508;-86
2023/08/05 11:06:15;;;;;;;3.17;2.88;;;20.90;84.20;;;;;;5071781;28;20211;-88
2023/08/05 11:08:41;;;;;;;3.17;2.83;;;20.80;84.20;;;;;;5055026;28;20210;-87
2023/08/05 11:11:09;;;;;;;3.10;2.80;;;20.80;84.00;;;;;;5071778;28;20221;-86
2023/08/05 11:13:36;;;;;;;3.10;2.80;;;20.80;83.90;;;;;;5055334;28;20169;-86
2023/08/05 11:16:05;;;;;;;3.00;2.70;;;20.80;83.50;;;;;;5071492;28;20232;-87
2023/08/05 11:18:31;;;;;;;2.83;2.63;;;20.80;83.60;;;;;;5071650;28;20192;-87
2023/08/05 11:20:58;;;;;;;3.35;2.97;;;20.90;83.20;;;;;;5071986;28;20190;-86
2023/08/05 11:23:24;;;;;;;2.85;2.65;;;20.90;83.00;;;;;;5072745;28;20146;-86
2023/08/05 11:25:51;;;;;;;3.10;2.80;;;20.90;82.70;;;;;;5055677;28;20168;-87
2023/08/05 11:28:17;;;;;;;3.70;3.20;;;20.90;82.80;;;;;;5055136;28;20585;-85
2023/08/05 11:30:43;;;;;;;3.33;3.03;;;20.90;82.80;;;;;;5071375;28;20673;-86
2023/08/05 11:33:09;;;;;;;3.20;2.90;;;20.90;82.40;;;;;;5072901;28;20141;-87
2023/08/05 11:35:45;;;;;;;2.75;2.55;;;20.90;81.80;;;;;;5071960;28;20511;-87
2023/08/05 11:38:18;;;;;;;3.30;3.00;;;20.80;81.90;;;;;;5054999;28;20188;-87
2023/08/05 11:40:46;;;;;;;3.20;2.90;;;20.90;81.90;;;;;;5073051;28;20177;-88
2023/08/05 11:43:12;;;;;;;3.42;3.13;;;20.90;81.50;;;;;;5071862;28;20154;-85
2023/08/05 11:45:40;;;;;;;3.50;3.20;;;20.90;81.40;;;;;;5055289;28;20185;-86
2023/08/05 11:48:15;;;;;;;3.20;2.90;;;20.80;81.10;;;;;;5058718;28;20161;-86
2023/08/05 11:50:41;;;;;;;3.22;2.92;;;20.80;81.00;;;;;;5076694;28;20161;-86
2023/08/05 11:53:08;;;;;;;3.20;2.90;;;20.90;81.00;;;;;;5076453;28;20154;-87
2023/08/05 11:55:35;;;;;;;3.55;3.20;;;20.90;80.50;;;;;;5059418;28;20166;-87
2023/08/05 11:58:03;;;;;;;3.60;3.30;;;20.90;80.50;;;;;;5058287;28;20162;-87
2023/08/05 12:00:29;;;;;;;3.20;2.90;;;20.90;80.30;;;;;;5076313;28;20154;-89
2023/08/05 12:02:55;;;;;;;3.78;3.38;;;20.90;80.20;;;;;;5074975;28;20160;-87
2023/08/05 12:05:22;;;;;;;3.30;3.00;;;20.90;80.40;;;;;;5058853;28;20169;-86
2023/08/05 12:07:48;;;;;;;3.20;2.90;;;20.90;80.10;;;;;;5058746;28;20572;-87
2023/08/05 12:10:16;;;;;;;3.30;3.00;;;20.90;80.10;;;;;;5057801;28;20158;-86
2023/08/05 12:12:43;;;;;;;3.50;3.20;;;20.90;79.80;;;;;;5075010;28;20173;-86
2023/08/05 12:15:11;;;;;;;3.28;2.97;;;20.90;79.70;;;;;;5074848;28;20157;-86
2023/08/05 12:17:38;;;;;;;3.50;3.20;;;20.90;79.70;;;;;;5057896;28;20608;-87
2023/08/05 12:20:07;;;;;;;3.15;2.85;;;20.90;79.60;;;;;;5074523;28;20575;-86
2023/08/05 12:22:33;;;;;;;3.55;3.25;;;20.90;79.30;;;;;;5057741;28;20161;-85
2023/08/05 12:24:59;;;;;;;3.22;2.92;;;20.90;79.40;;;;;;5075229;28;20505;-85
2023/08/05 12:27:25;;;;;;;3.47;3.13;;;20.90;79.00;;;;;;5074801;28;20158;-86
2023/08/05 12:29:51;;;;;;;3.22;2.92;;;20.90;79.10;;;;;;5075532;28;20161;-87
2023/08/05 12:32:17;;;;;;;3.00;2.80;;;20.90;79.00;;;;;;5074319;28;20146;-85
2023/08/05 12:34:43;;;;;;;3.55;3.10;;;20.90;78.80;;;;;;5058029;28;20241;-87
2023/08/05 12:37:09;;;;;;;3.40;3.08;;;20.90;78.80;;;;;;5057530;28;20170;-85
2023/08/05 12:39:35;;;;;;;3.40;3.10;;;20.90;78.70;;;;;;5074116;28;20193;-84
2023/08/05 12:42:01;;;;;;;3.40;3.10;;;20.90;78.70;;;;;;5075758;28;20153;-87
2023/08/05 12:44:27;;;;;;;3.50;3.20;;;20.90;78.50;;;;;;5074945;28;20670;-86
2023/08/05 12:46:53;;;;;;;3.40;3.10;;;20.90;78.40;;;;;;5075576;28;20538;-86